CXA110 NQPR-VNLK
Flight info
| Callsign | CXA110 |
|---|---|
| Flight time | N/A |
| Altitude | 18000 |
| Route | TUMLI |
| Aircraft | TBM9/L-VGD/A |
Departure
| Time | N/A |
|---|---|
| Airport | NQPR |
Arrival
| Time | 2025-01-01 23:35 |
|---|---|
| Airport | Tenzing-Hillary Airport (VNLK) |
| Time | Latitude | Longitude | Altitude | Speed | Heading |
|---|---|---|---|---|---|
| 2025-01-01 22:49 | 27.39502 | 89.42995 | 7311 ft | 0 kts | 330° |
| 2025-01-01 22:51 | 27.40296 | 89.42465 | 7408 ft | 100 kts | 327° |
| 2025-01-01 22:51 | 27.41522 | 89.41697 | 8091 ft | 108 kts | 331° |
| 2025-01-01 22:52 | 27.42243 | 89.40307 | 8837 ft | 124 kts | 261° |
| 2025-01-01 22:52 | 27.42156 | 89.39327 | 9263 ft | 129 kts | 267° |
| 2025-01-01 22:52 | 27.42008 | 89.37219 | 10111 ft | 142 kts | 261° |
| 2025-01-01 22:53 | 27.41311 | 89.35014 | 10942 ft | 158 kts | 250° |
| 2025-01-01 22:53 | 27.40580 | 89.32827 | 12305 ft | 119 kts | 249° |
| 2025-01-01 22:54 | 27.40369 | 89.30868 | 12993 ft | 142 kts | 250° |
| 2025-01-01 22:54 | 27.40016 | 89.29795 | 13382 ft | 150 kts | 262° |
| 2025-01-01 22:55 | 27.39736 | 89.24532 | 14942 ft | 186 kts | 269° |
| 2025-01-01 22:56 | 27.39596 | 89.21556 | 15718 ft | 195 kts | 269° |
| 2025-01-01 22:56 | 27.39435 | 89.18447 | 16509 ft | 202 kts | 269° |
| 2025-01-01 22:57 | 27.39243 | 89.15236 | 17325 ft | 210 kts | 269° |
| 2025-01-01 22:57 | 27.39012 | 89.11879 | 18025 ft | 224 kts | 269° |
| 2025-01-01 22:57 | 27.38885 | 89.10067 | 18034 ft | 239 kts | 269° |
| 2025-01-01 22:58 | 27.38633 | 89.06179 | 18040 ft | 256 kts | 269° |
| 2025-01-01 22:59 | 27.38261 | 88.99952 | 18033 ft | 273 kts | 269° |
| 2025-01-01 22:59 | 27.38012 | 88.95653 | 18032 ft | 276 kts | 269° |
| 2025-01-01 23:00 | 27.37762 | 88.91314 | 18031 ft | 280 kts | 269° |
| 2025-01-01 23:00 | 27.37635 | 88.89134 | 18041 ft | 280 kts | 269° |
| 2025-01-01 23:00 | 27.37386 | 88.84746 | 18032 ft | 281 kts | 269° |
| 2025-01-01 23:01 | 27.37133 | 88.80382 | 18035 ft | 279 kts | 269° |
| 2025-01-01 23:01 | 27.36875 | 88.76040 | 18034 ft | 278 kts | 269° |
| 2025-01-01 23:02 | 27.36629 | 88.71681 | 18035 ft | 280 kts | 269° |
| 2025-01-01 23:03 | 27.36246 | 88.65153 | 18034 ft | 279 kts | 269° |
| 2025-01-01 23:03 | 27.35994 | 88.60796 | 18033 ft | 280 kts | 269° |
| 2025-01-01 23:04 | 27.35737 | 88.56434 | 18027 ft | 278 kts | 269° |
| 2025-01-01 23:04 | 27.35475 | 88.52117 | 18032 ft | 277 kts | 269° |
| 2025-01-01 23:04 | 27.35343 | 88.49956 | 18037 ft | 277 kts | 269° |
| 2025-01-01 23:05 | 27.35077 | 88.45632 | 18040 ft | 276 kts | 269° |
| 2025-01-01 23:05 | 27.34835 | 88.41385 | 18048 ft | 270 kts | 269° |
| 2025-01-01 23:06 | 27.34573 | 88.37158 | 18056 ft | 273 kts | 269° |
| 2025-01-01 23:07 | 27.34171 | 88.30739 | 18049 ft | 275 kts | 269° |
| 2025-01-01 23:07 | 27.34034 | 88.28601 | 18047 ft | 273 kts | 269° |
| 2025-01-01 23:08 | 27.33623 | 88.22220 | 18051 ft | 273 kts | 269° |
| 2025-01-01 23:08 | 27.33356 | 88.17974 | 18051 ft | 272 kts | 269° |
| 2025-01-01 23:09 | 27.33090 | 88.13714 | 18050 ft | 274 kts | 269° |
| 2025-01-01 23:09 | 27.32959 | 88.11584 | 18048 ft | 272 kts | 269° |
| 2025-01-01 23:09 | 27.32694 | 88.07382 | 18046 ft | 272 kts | 269° |
| 2025-01-01 23:10 | 27.32421 | 88.03139 | 18046 ft | 273 kts | 269° |
| 2025-01-01 23:10 | 27.32161 | 87.98865 | 18051 ft | 275 kts | 269° |
| 2025-01-01 23:11 | 27.31768 | 87.92430 | 18051 ft | 274 kts | 269° |
| 2025-01-01 23:12 | 27.31500 | 87.88152 | 18055 ft | 275 kts | 269° |
| 2025-01-01 23:12 | 27.31235 | 87.83843 | 18051 ft | 277 kts | 269° |
| 2025-01-01 23:13 | 27.30958 | 87.79571 | 18046 ft | 271 kts | 269° |
| 2025-01-01 23:13 | 27.30820 | 87.77455 | 18052 ft | 273 kts | 269° |
| 2025-01-01 23:13 | 27.30541 | 87.73179 | 18055 ft | 275 kts | 269° |
| 2025-01-01 23:14 | 27.30262 | 87.68905 | 18055 ft | 274 kts | 269° |
| 2025-01-01 23:15 | 27.29838 | 87.62496 | 18058 ft | 274 kts | 269° |
| 2025-01-01 23:15 | 27.29602 | 87.58932 | 18058 ft | 276 kts | 269° |
| 2025-01-01 23:16 | 27.29317 | 87.54625 | 18062 ft | 276 kts | 269° |
| 2025-01-01 23:16 | 27.29172 | 87.52475 | 18062 ft | 276 kts | 269° |
| 2025-01-01 23:16 | 27.28881 | 87.48165 | 18069 ft | 277 kts | 269° |
| 2025-01-01 23:17 | 27.28580 | 87.43838 | 18072 ft | 278 kts | 269° |
| 2025-01-01 23:17 | 27.28278 | 87.39514 | 18069 ft | 277 kts | 269° |
| 2025-01-01 23:18 | 27.27971 | 87.35191 | 18068 ft | 277 kts | 269° |
| 2025-01-01 23:19 | 27.27495 | 87.28731 | 18070 ft | 275 kts | 269° |
| 2025-01-01 23:19 | 27.27330 | 87.26594 | 18068 ft | 274 kts | 269° |
| 2025-01-01 23:19 | 27.27004 | 87.22314 | 18068 ft | 276 kts | 269° |
| 2025-01-01 23:20 | 27.26675 | 87.18026 | 18072 ft | 274 kts | 269° |
| 2025-01-01 23:20 | 27.26355 | 87.13773 | 18069 ft | 273 kts | 269° |
| 2025-01-01 23:21 | 27.26203 | 87.07409 | 18077 ft | 270 kts | 273° |
| 2025-01-01 23:21 | 27.26190 | 87.05298 | 18076 ft | 270 kts | 273° |
| 2025-01-01 23:22 | 27.26123 | 86.98899 | 17626 ft | 284 kts | 273° |
| 2025-01-01 23:23 | 27.26099 | 86.94420 | 17025 ft | 288 kts | 273° |
| 2025-01-01 23:23 | 27.26096 | 86.89906 | 16442 ft | 291 kts | 273° |
| 2025-01-01 23:24 | 27.26118 | 86.85313 | 15865 ft | 294 kts | 273° |
| 2025-01-01 23:24 | 27.26152 | 86.80735 | 15295 ft | 294 kts | 273° |
| 2025-01-01 23:25 | 27.26214 | 86.76175 | 14737 ft | 292 kts | 273° |
| 2025-01-01 23:25 | 27.26245 | 86.73891 | 14454 ft | 291 kts | 273° |
| 2025-01-01 23:25 | 27.27613 | 86.69794 | 13909 ft | 289 kts | 311° |
| 2025-01-01 23:26 | 27.32611 | 86.66190 | 12700 ft | 295 kts | 345° |
| 2025-01-01 23:27 | 27.36592 | 86.65110 | 11932 ft | 291 kts | 343° |
| 2025-01-01 23:27 | 27.39997 | 86.63626 | 11136 ft | 244 kts | 331° |
| 2025-01-01 23:27 | 27.41471 | 86.62728 | 10757 ft | 236 kts | 329° |
| 2025-01-01 23:28 | 27.43733 | 86.60204 | 10088 ft | 225 kts | 304° |
| 2025-01-01 23:28 | 27.45660 | 86.58415 | 10397 ft | 210 kts | 33° |
| 2025-01-01 23:29 | 27.47918 | 86.60775 | 10946 ft | 232 kts | 37° |
| 2025-01-01 23:29 | 27.49526 | 86.63880 | 10969 ft | 267 kts | 85° |
| 2025-01-01 23:30 | 27.52247 | 86.68291 | 11146 ft | 271 kts | 4° |
| 2025-01-01 23:30 | 27.54160 | 86.68213 | 10817 ft | 280 kts | 353° |
| 2025-01-01 23:31 | 27.57771 | 86.68421 | 10114 ft | 244 kts | 11° |
| 2025-01-01 23:32 | 27.61432 | 86.69398 | 9830 ft | 109 kts | 7° |
| 2025-01-01 23:32 | 27.62936 | 86.69576 | 9824 ft | 115 kts | 5° |
| 2025-01-01 23:33 | 27.64568 | 86.69873 | 9689 ft | 125 kts | 12° |
| 2025-01-01 23:33 | 27.65421 | 86.70108 | 9562 ft | 128 kts | 16° |
| 2025-01-01 23:33 | 27.67018 | 86.70811 | 9446 ft | 123 kts | 28° |
| 2025-01-01 23:34 | 27.68584 | 86.72755 | 9228 ft | 86 kts | 58° |
| 2025-01-01 23:35 | 27.68703 | 86.72981 | 9345 ft | 11 kts | 60° |
| 2025-01-01 23:35 | 27.68781 | 86.73157 | 9425 ft | 9 kts | 139° |
| 2025-01-01 23:35 | 27.68770 | 86.73164 | 9423 ft | 0 kts | 154° |